createdAt,value
2018-07-28T00:01:17.416Z,30.50
2018-07-28T00:03:56.181Z,30.19
2018-07-28T00:06:29.532Z,30.00
2018-07-28T00:09:11.437Z,30.29
2018-07-28T00:11:44.771Z,30.43
2018-07-28T00:14:22.503Z,30.67
2018-07-28T00:16:55.616Z,30.90
2018-07-28T00:19:41.193Z,31.06
2018-07-28T00:25:02.605Z,30.26
2018-07-28T00:27:36.236Z,31.57
2018-07-28T00:30:18.405Z,31.21
2018-07-28T00:32:51.374Z,31.52
2018-07-28T00:42:01.242Z,30.63
2018-07-28T00:44:39.329Z,31.04
2018-07-28T00:52:47.618Z,31.40
2018-07-28T00:58:25.368Z,31.76
2018-07-28T01:00:59.462Z,32.34
2018-07-28T01:03:34.578Z,31.79
2018-07-28T01:06:11.190Z,32.55
2018-07-28T01:08:49.280Z,32.03
2018-07-28T01:11:28.048Z,32.52
2018-07-28T01:13:58.501Z,31.71
2018-07-28T01:16:29.305Z,31.68
2018-07-28T01:19:02.803Z,31.40
2018-07-28T01:21:33.454Z,31.98
2018-07-28T01:24:04.243Z,31.27
2018-07-28T01:26:34.539Z,32.00
2018-07-28T01:29:11.278Z,31.86
2018-07-28T01:31:43.797Z,32.07
2018-07-28T01:34:27.872Z,32.56
2018-07-28T01:37:02.107Z,32.68
2018-07-28T01:39:34.585Z,32.40
2018-07-28T01:42:11.473Z,32.18
2018-07-28T01:44:45.064Z,32.10
2018-07-28T01:47:25.189Z,32.56
2018-07-28T01:49:56.694Z,32.29
2018-07-28T01:52:29.251Z,32.77
2018-07-28T01:55:10.591Z,33.99
2018-07-28T01:58:12.010Z,33.48
2018-07-28T02:01:38.684Z,33.47
2018-07-28T02:05:05.052Z,33.24
2018-07-28T02:07:43.580Z,33.49
2018-07-28T02:10:16.061Z,34.15
2018-07-28T02:12:47.054Z,33.63
2018-07-28T02:18:16.969Z,33.84
2018-07-28T02:20:49.487Z,34.52
2018-07-28T02:23:21.101Z,34.70
2018-07-28T02:25:51.744Z,33.97
2018-07-28T02:28:22.398Z,34.35
2018-07-28T02:30:54.188Z,34.27
2018-07-28T02:33:24.828Z,34.44
2018-07-28T02:35:55.696Z,33.95
2018-07-28T02:38:27.023Z,33.99
2018-07-28T02:40:57.752Z,33.77
2018-07-28T02:43:28.209Z,34.22
2018-07-28T02:45:58.973Z,34.98
2018-07-28T02:48:30.359Z,34.93
2018-07-28T02:51:01.010Z,34.44
2018-07-28T02:53:31.347Z,35.08
2018-07-28T02:56:02.286Z,34.79
2018-07-28T02:58:34.579Z,34.46
2018-07-28T03:01:05.151Z,34.72
2018-07-28T03:03:35.575Z,34.71
2018-07-28T03:06:05.986Z,34.53
2018-07-28T03:08:36.405Z,34.29
2018-07-28T03:11:06.979Z,33.63
2018-07-28T03:13:38.726Z,33.79
2018-07-28T03:16:14.884Z,34.17
2018-07-28T03:18:45.393Z,34.08
2018-07-28T03:21:17.821Z,33.48
2018-07-28T03:23:48.490Z,34.13
2018-07-28T03:26:21.106Z,33.77
2018-07-28T03:28:52.323Z,34.04
2018-07-28T03:31:24.999Z,34.65
2018-07-28T03:33:55.549Z,34.13
2018-07-28T03:36:26.584Z,34.16
2018-07-28T03:38:57.160Z,34.32
2018-07-28T03:41:27.826Z,34.60
2018-07-28T03:43:58.915Z,34.32
2018-07-28T03:46:30.321Z,33.67
2018-07-28T03:49:03.536Z,34.25
2018-07-28T03:51:34.252Z,33.74
2018-07-28T03:54:06.032Z,34.66
2018-07-28T03:56:36.761Z,34.40
2018-07-28T03:59:07.943Z,33.93
2018-07-28T04:01:38.707Z,33.84
2018-07-28T04:04:10.881Z,34.07
2018-07-28T04:06:41.910Z,34.47
2018-07-28T04:09:14.535Z,34.73
2018-07-28T04:11:45.475Z,34.33
2018-07-28T04:14:16.186Z,33.83
2018-07-28T04:16:46.913Z,33.07
2018-07-28T04:19:18.034Z,33.00
2018-07-28T04:21:48.736Z,31.92
2018-07-28T04:24:26.303Z,31.75
2018-07-28T04:26:56.822Z,31.56
2018-07-28T04:29:27.528Z,30.88
2018-07-28T04:31:58.503Z,29.87
2018-07-28T04:34:29.817Z,29.80
2018-07-28T04:37:01.797Z,29.54
2018-07-28T04:39:32.694Z,29.54
2018-07-28T04:42:03.375Z,29.19
2018-07-28T04:44:37.627Z,29.12
2018-07-28T04:47:10.105Z,28.49
2018-07-28T04:49:40.548Z,28.83
2018-07-28T04:52:12.292Z,28.77
2018-07-28T04:54:43.077Z,29.06
2018-07-28T04:57:13.945Z,28.40
2018-07-28T04:59:44.948Z,28.35
2018-07-28T05:02:17.472Z,28.25
2018-07-28T05:04:48.734Z,28.05
2018-07-28T05:07:23.781Z,27.99
2018-07-28T05:09:54.821Z,28.64
2018-07-28T05:12:26.366Z,27.92
2018-07-28T05:14:57.019Z,27.49
2018-07-28T05:17:27.674Z,27.78
2018-07-28T05:19:58.759Z,26.59
2018-07-28T05:22:29.514Z,25.69
2018-07-28T05:25:00.694Z,25.41
2018-07-28T05:27:32.897Z,25.28
2018-07-28T05:30:03.396Z,24.55
2018-07-28T05:32:33.780Z,23.87
2018-07-28T05:35:04.441Z,22.88
2018-07-28T05:37:35.069Z,23.70
2018-07-28T05:40:06.845Z,23.14
2018-07-28T05:42:37.370Z,22.91
2018-07-28T05:47:52.099Z,22.53
2018-07-28T05:50:24.513Z,22.41
2018-07-28T05:52:55.240Z,22.45
2018-07-28T05:55:26.181Z,22.42
2018-07-28T05:57:58.361Z,21.29
2018-07-28T06:00:32.759Z,21.13
2018-07-28T06:03:06.604Z,21.23
2018-07-28T06:05:38.343Z,21.96
2018-07-28T06:08:08.948Z,21.62
2018-07-28T06:10:40.113Z,21.53
2018-07-28T06:13:11.243Z,21.61
2018-07-28T06:15:45.594Z,21.27
2018-07-28T06:18:19.051Z,20.71
2018-07-28T06:20:50.595Z,20.59
2018-07-28T06:23:26.435Z,20.79
2018-07-28T06:25:58.229Z,20.72
2018-07-28T06:28:31.148Z,20.60
2018-07-28T06:31:04.879Z,21.23
2018-07-28T06:33:42.135Z,20.92
2018-07-28T06:36:12.674Z,21.84
2018-07-28T06:38:44.734Z,22.71
2018-07-28T06:41:16.423Z,23.33
2018-07-28T06:43:49.251Z,23.03
2018-07-28T06:46:22.404Z,22.35
2018-07-28T06:48:54.235Z,22.58
2018-07-28T06:51:26.517Z,22.45
2018-07-28T06:53:59.662Z,21.99
2018-07-28T06:56:34.092Z,20.94
2018-07-28T06:59:09.747Z,22.63
2018-07-28T07:02:08.195Z,22.09
2018-07-28T07:04:43.491Z,21.21
2018-07-28T07:07:25.880Z,21.21
2018-07-28T07:10:01.270Z,22.19
2018-07-28T07:13:07.122Z,22.97
2018-07-28T07:19:26.571Z,24.36
2018-07-28T07:21:58.889Z,25.07
2018-07-28T07:24:29.766Z,25.58
2018-07-28T07:27:00.619Z,26.31
2018-07-28T07:29:33.079Z,26.53
2018-07-28T07:32:04.435Z,26.37
2018-07-28T07:34:35.697Z,27.66
2018-07-28T07:37:06.450Z,27.02
2018-07-28T07:39:36.836Z,27.99
2018-07-28T07:42:09.337Z,27.64
2018-07-28T07:44:40.695Z,26.60
2018-07-28T07:47:12.508Z,26.64
2018-07-28T07:49:43.575Z,27.20
2018-07-28T07:52:15.983Z,27.15
2018-07-28T07:54:46.566Z,27.33
2018-07-28T07:57:17.265Z,27.38
2018-07-28T07:59:47.672Z,28.17
2018-07-28T08:02:18.470Z,28.44
2018-07-28T08:04:48.815Z,27.83
2018-07-28T08:07:20.041Z,28.19
2018-07-28T08:09:51.347Z,27.53
2018-07-28T08:12:22.560Z,26.24
2018-07-28T08:14:53.183Z,25.35
2018-07-28T08:17:24.561Z,25.98
2018-07-28T08:19:55.795Z,26.28
2018-07-28T08:22:30.095Z,25.94
2018-07-28T08:25:00.487Z,25.88
2018-07-28T08:27:33.425Z,24.75
2018-07-28T08:30:07.857Z,24.42
2018-07-28T08:32:40.088Z,25.07
2018-07-28T08:35:11.073Z,24.86
2018-07-28T08:37:41.935Z,24.27
2018-07-28T08:40:14.812Z,24.08
2018-07-28T08:42:45.260Z,24.66
2018-07-28T08:45:17.735Z,26.79
2018-07-28T08:47:50.141Z,27.48
2018-07-28T08:50:22.306Z,29.47
2018-07-28T08:52:55.547Z,30.49
2018-07-28T08:55:27.863Z,31.58
2018-07-28T08:57:58.589Z,32.22
2018-07-28T09:00:28.951Z,32.29
2018-07-28T09:03:00.460Z,33.54
2018-07-28T09:05:30.920Z,34.41
2018-07-28T09:08:08.587Z,34.92
2018-07-28T09:10:41.507Z,34.44
2018-07-28T09:13:15.754Z,34.57
2018-07-28T09:15:48.020Z,34.47
2018-07-28T09:18:19.037Z,34.47
2018-07-28T09:20:50.376Z,34.40
2018-07-28T09:23:24.948Z,34.72
2018-07-28T09:25:55.449Z,35.03
2018-07-28T09:28:28.730Z,34.68
2018-07-28T09:30:59.127Z,32.99
2018-07-28T09:33:29.590Z,33.24
2018-07-28T09:36:00.545Z,33.06
2018-07-28T09:38:30.899Z,33.15
2018-07-28T09:41:01.738Z,33.29
2018-07-28T09:43:32.435Z,31.34
2018-07-28T09:46:03.553Z,31.17
2018-07-28T09:48:38.672Z,30.59
2018-07-28T09:51:09.954Z,29.69
2018-07-28T09:53:41.472Z,29.50
2018-07-28T09:56:11.907Z,30.60
2018-07-28T09:58:42.550Z,29.70
2018-07-28T10:01:20.066Z,29.76
2018-07-28T10:03:50.520Z,29.67
2018-07-28T10:06:20.809Z,28.32
2018-07-28T10:08:51.378Z,27.76
2018-07-28T10:11:22.375Z,27.86
2018-07-28T10:13:53.735Z,27.34
2018-07-28T10:16:24.128Z,25.70
2018-07-28T10:18:55.847Z,23.50
2018-07-28T10:21:28.634Z,23.66
2018-07-28T10:24:06.344Z,22.74
2018-07-28T10:26:38.406Z,22.91
2018-07-28T10:29:11.445Z,22.28
2018-07-28T10:31:44.884Z,22.01
2018-07-28T10:34:22.322Z,22.06
2018-07-28T10:36:57.252Z,22.10
2018-07-28T10:39:30.753Z,21.95
2018-07-28T10:42:02.210Z,21.71
2018-07-28T10:44:39.507Z,21.14
2018-07-28T10:47:11.755Z,21.04
2018-07-28T10:49:45.986Z,21.61
2018-07-28T10:52:21.145Z,20.91
2018-07-28T10:54:53.567Z,20.93
2018-07-28T10:57:26.439Z,20.69
2018-07-28T10:59:59.317Z,21.12
2018-07-28T11:02:31.681Z,22.34
2018-07-28T11:05:04.535Z,22.48
2018-07-28T11:07:43.332Z,22.56
2018-07-28T11:10:18.424Z,21.79
2018-07-28T11:12:51.650Z,20.41
2018-07-28T11:15:23.669Z,20.09
2018-07-28T11:17:57.277Z,20.25
2018-07-28T11:20:30.048Z,19.87
2018-07-28T11:23:01.587Z,19.84
2018-07-28T11:25:34.058Z,19.00
2018-07-28T11:28:09.365Z,19.60
2018-07-28T11:30:40.852Z,19.95
2018-07-28T11:33:23.890Z,19.94
2018-07-28T11:36:08.001Z,20.06
2018-07-28T11:38:50.225Z,20.07
2018-07-28T11:41:32.222Z,20.33
2018-07-28T11:44:15.580Z,20.42
2018-07-28T11:46:49.556Z,20.23
2018-07-28T11:49:21.094Z,20.53
2018-07-28T11:51:52.883Z,19.35
2018-07-28T11:54:24.863Z,19.23
2018-07-28T11:56:56.194Z,21.20
2018-07-28T11:59:28.763Z,21.59
2018-07-28T12:02:01.103Z,21.71
2018-07-28T12:04:34.679Z,22.12
2018-07-28T12:07:07.158Z,21.98
2018-07-28T12:09:39.348Z,21.09
2018-07-28T12:12:10.584Z,20.76
2018-07-28T12:14:43.446Z,21.21
2018-07-28T12:17:14.783Z,20.60
2018-07-28T12:19:47.310Z,20.45
2018-07-28T12:22:19.826Z,19.98
2018-07-28T12:24:51.386Z,20.26
2018-07-28T12:27:22.428Z,20.52
2018-07-28T12:29:53.822Z,21.28
2018-07-28T12:32:28.710Z,21.61
2018-07-28T12:35:04.922Z,22.32
2018-07-28T12:37:36.772Z,23.07
2018-07-28T12:40:09.907Z,22.85
2018-07-28T12:42:41.392Z,23.27
2018-07-28T12:45:13.585Z,23.15
2018-07-28T12:47:49.303Z,22.53
2018-07-28T12:50:27.584Z,23.18
2018-07-28T12:52:58.853Z,22.99
2018-07-28T12:55:30.879Z,23.02
2018-07-28T12:58:02.261Z,22.96
2018-07-28T13:00:35.332Z,22.94
2018-07-28T13:03:07.738Z,22.78
2018-07-28T13:05:39.303Z,22.69
2018-07-28T13:08:11.715Z,23.37
2018-07-28T13:10:45.310Z,23.69
2018-07-28T13:13:17.756Z,23.46
2018-07-28T13:15:49.844Z,23.91
2018-07-28T13:18:21.122Z,23.61
2018-07-28T13:20:53.396Z,23.59
2018-07-28T13:23:25.516Z,23.40
2018-07-28T13:25:57.863Z,22.45
2018-07-28T13:28:30.545Z,22.18
2018-07-28T13:31:02.080Z,22.45
2018-07-28T13:33:33.567Z,22.35
2018-07-28T13:36:07.586Z,21.66
2018-07-28T13:38:39.130Z,22.40
2018-07-28T13:41:11.660Z,26.75
2018-07-28T13:43:44.661Z,32.81
2018-07-28T13:46:18.235Z,37.98
2018-07-28T13:48:50.534Z,42.78
2018-07-28T13:51:22.106Z,45.42
2018-07-28T13:54:10.092Z,46.70
2018-07-28T13:56:44.755Z,44.08
2018-07-28T13:59:16.497Z,40.92
2018-07-28T14:01:49.792Z,40.77
2018-07-28T14:04:20.914Z,40.90
2018-07-28T14:06:52.987Z,39.67
2018-07-28T14:09:25.529Z,39.76
2018-07-28T14:11:57.573Z,39.85
2018-07-28T14:14:30.349Z,40.96
2018-07-28T14:17:02.610Z,39.80
2018-07-28T14:19:34.745Z,39.95
2018-07-28T14:22:06.591Z,39.86
2018-07-28T14:24:38.301Z,39.13
2018-07-28T14:27:12.597Z,39.56
2018-07-28T14:29:44.593Z,38.87
2018-07-28T14:32:16.706Z,39.26
2018-07-28T14:34:50.110Z,38.37
2018-07-28T14:37:22.307Z,36.79
2018-07-28T14:39:54.491Z,38.05
2018-07-28T14:42:26.273Z,38.22
2018-07-28T14:44:58.484Z,35.94
2018-07-28T14:47:31.395Z,35.07
2018-07-28T14:50:04.037Z,33.44
2018-07-28T14:52:37.682Z,31.53
2018-07-28T14:55:12.577Z,31.76
2018-07-28T14:57:43.279Z,30.98
2018-07-28T15:00:20.431Z,31.81
2018-07-28T15:02:51.093Z,31.29
2018-07-28T15:05:24.092Z,31.04
2018-07-28T15:07:54.479Z,33.98
2018-07-28T15:10:32.314Z,32.44
2018-07-28T15:13:04.473Z,32.91
2018-07-28T15:15:36.741Z,33.38
2018-07-28T15:18:08.349Z,35.25
2018-07-28T15:20:38.669Z,34.64
2018-07-28T15:23:12.774Z,35.43
2018-07-28T15:25:43.673Z,33.44
2018-07-28T15:28:16.328Z,34.17
2018-07-28T15:30:47.537Z,32.78
2018-07-28T15:33:17.971Z,32.14
2018-07-28T15:35:48.684Z,32.82
2018-07-28T15:38:19.135Z,32.48
2018-07-28T15:40:49.609Z,31.05
2018-07-28T15:43:25.634Z,31.35
2018-07-28T15:46:00.349Z,30.25
2018-07-28T15:48:32.849Z,29.80
2018-07-28T15:51:03.244Z,28.84
2018-07-28T15:53:34.527Z,29.23
2018-07-28T15:56:08.794Z,28.31
2018-07-28T15:58:40.267Z,27.30
2018-07-28T16:01:12.642Z,25.53
2018-07-28T16:03:46.859Z,23.97
2018-07-28T16:06:19.750Z,25.32
2018-07-28T16:08:52.879Z,24.88
2018-07-28T16:11:28.257Z,23.34
2018-07-28T16:14:05.602Z,23.53
2018-07-28T16:16:40.367Z,22.87
2018-07-28T16:19:11.284Z,23.35
2018-07-28T16:21:43.961Z,23.02
2018-07-28T16:24:17.667Z,22.82
2018-07-28T16:26:49.775Z,22.47
2018-07-28T16:29:22.575Z,23.19
2018-07-28T16:31:59.524Z,23.68
2018-07-28T16:34:32.004Z,23.73
2018-07-28T16:37:03.782Z,23.21
2018-07-28T16:39:35.072Z,23.32
2018-07-28T16:42:12.966Z,24.34
2018-07-28T16:44:44.615Z,24.55
2018-07-28T16:47:17.414Z,26.22
2018-07-28T16:49:51.308Z,26.08
2018-07-28T16:52:26.498Z,26.70
2018-07-28T16:55:00.048Z,26.71
2018-07-28T16:57:33.833Z,27.63
2018-07-28T17:00:09.362Z,27.06
2018-07-28T17:02:42.866Z,26.44
2018-07-28T17:05:17.253Z,26.26
2018-07-28T17:07:50.880Z,25.99
2018-07-28T17:10:23.481Z,26.30
2018-07-28T17:12:56.449Z,25.39
2018-07-28T17:15:33.534Z,25.84
2018-07-28T17:18:05.475Z,25.23
2018-07-28T17:20:39.264Z,24.93
2018-07-28T17:23:13.109Z,25.54
2018-07-28T17:25:45.633Z,25.77
2018-07-28T17:28:23.302Z,26.15
2018-07-28T17:31:04.032Z,25.50
2018-07-28T17:33:42.289Z,26.43
2018-07-28T17:36:20.109Z,25.72
2018-07-28T17:38:56.022Z,25.42
2018-07-28T17:41:30.590Z,25.36
2018-07-28T17:44:04.597Z,25.82
2018-07-28T17:46:38.633Z,25.82
2018-07-28T17:49:11.449Z,25.51
2018-07-28T17:51:46.841Z,25.85
2018-07-28T17:54:23.569Z,26.43
2018-07-28T17:56:56.442Z,26.42
2018-07-28T17:59:35.229Z,26.62
2018-07-28T18:02:08.082Z,26.86
2018-07-28T18:04:41.947Z,27.09
2018-07-28T18:07:13.242Z,27.09
2018-07-28T18:09:44.525Z,27.69
2018-07-28T18:12:16.988Z,26.74
2018-07-28T18:14:51.003Z,27.63
2018-07-28T18:17:24.471Z,27.52
2018-07-28T18:19:56.406Z,27.92
2018-07-28T18:22:29.619Z,27.51
2018-07-28T18:25:05.926Z,26.97
2018-07-28T18:27:38.079Z,27.47
2018-07-28T18:30:11.109Z,27.68
2018-07-28T18:32:44.370Z,27.94
2018-07-28T18:35:17.273Z,26.98
2018-07-28T18:37:51.772Z,27.86
2018-07-28T18:43:01.989Z,27.66
2018-07-28T18:45:33.853Z,27.81
2018-07-28T18:48:10.112Z,28.16
2018-07-28T18:50:41.499Z,28.08
2018-07-28T18:53:13.587Z,27.71
2018-07-28T18:55:49.659Z,27.71
2018-07-28T18:58:23.554Z,28.40
2018-07-28T19:00:55.649Z,27.95
2018-07-28T19:03:28.956Z,28.33
2018-07-28T19:06:02.855Z,27.82
2018-07-28T19:08:36.617Z,28.83
2018-07-28T19:11:14.328Z,28.82
2018-07-28T19:13:50.770Z,28.94
2018-07-28T19:16:22.195Z,29.21
2018-07-28T19:18:59.312Z,29.01
2018-07-28T19:21:31.452Z,28.89
2018-07-28T19:24:05.420Z,28.81
2018-07-28T19:26:39.297Z,29.07
2018-07-28T19:29:17.773Z,29.70
2018-07-28T19:31:51.711Z,29.46
2018-07-28T19:34:26.380Z,29.95
2018-07-28T19:37:08.516Z,29.71
2018-07-28T19:39:43.181Z,29.93
2018-07-28T19:42:20.643Z,30.26
2018-07-28T19:44:55.428Z,29.54
2018-07-28T19:47:32.446Z,29.00
2018-07-28T19:50:13.361Z,29.54
2018-07-28T19:52:50.351Z,30.25
2018-07-28T19:55:24.460Z,30.03
2018-07-28T19:57:57.293Z,29.56
2018-07-28T20:00:29.342Z,29.64
2018-07-28T20:03:02.188Z,29.31
2018-07-28T20:05:34.364Z,30.06
2018-07-28T20:08:08.710Z,30.13
2018-07-28T20:10:41.278Z,31.04
2018-07-28T20:13:14.461Z,30.82
2018-07-28T20:15:47.941Z,29.99
2018-07-28T20:18:20.863Z,30.33
2018-07-28T20:21:09.515Z,30.54
2018-07-28T20:23:42.369Z,30.26
2018-07-28T20:26:17.500Z,31.02
2018-07-28T20:28:55.205Z,30.58
2018-07-28T20:31:28.524Z,30.79
2018-07-28T20:34:01.685Z,30.05
2018-07-28T20:36:36.193Z,30.05
2018-07-28T20:39:11.719Z,30.75
2018-07-28T20:41:48.692Z,31.17
2018-07-28T20:44:22.355Z,31.23
2018-07-28T20:46:57.349Z,31.13
2018-07-28T20:49:31.477Z,31.32
2018-07-28T20:52:11.066Z,32.36
2018-07-28T20:54:43.591Z,31.53
2018-07-28T20:57:15.854Z,31.75
2018-07-28T20:59:53.165Z,31.80
2018-07-28T21:02:27.327Z,31.19
2018-07-28T21:05:04.442Z,30.66
2018-07-28T21:07:41.933Z,31.58
2018-07-28T21:10:18.193Z,31.54
2018-07-28T21:12:54.059Z,31.92
2018-07-28T21:15:30.936Z,33.19
2018-07-28T21:18:05.375Z,33.15
2018-07-28T21:20:40.222Z,32.87
2018-07-28T21:23:12.486Z,32.68
2018-07-28T21:25:47.898Z,32.68
2018-07-28T21:28:19.680Z,32.63
2018-07-28T21:30:51.445Z,32.63
2018-07-28T21:33:27.044Z,33.04
2018-07-28T21:35:58.495Z,33.74
2018-07-28T21:38:31.490Z,34.03
2018-07-28T21:41:04.814Z,34.49
2018-07-28T21:43:37.093Z,35.29
2018-07-28T21:46:09.137Z,36.18
2018-07-28T21:48:41.823Z,36.41
2018-07-28T21:51:14.578Z,36.27
2018-07-28T21:53:47.426Z,36.52
2018-07-28T21:56:22.714Z,36.66
2018-07-28T21:58:56.235Z,37.09
2018-07-28T22:01:28.200Z,37.33
2018-07-28T22:04:03.668Z,36.08
2018-07-28T22:06:35.767Z,36.71
2018-07-28T22:09:08.293Z,36.33
2018-07-28T22:11:44.009Z,36.66
2018-07-28T22:14:19.480Z,36.52
2018-07-28T22:16:51.971Z,35.47
2018-07-28T22:19:24.024Z,35.77
2018-07-28T22:21:56.134Z,35.04
2018-07-28T22:24:31.084Z,35.78
2018-07-28T22:27:03.510Z,36.55
2018-07-28T22:29:36.625Z,36.53
2018-07-28T22:32:11.417Z,37.00
2018-07-28T22:34:43.502Z,37.23
2018-07-28T22:37:15.616Z,37.83
2018-07-28T22:39:48.385Z,38.31
2018-07-28T22:42:21.174Z,38.78
2018-07-28T22:45:00.966Z,38.02
2018-07-28T22:47:33.143Z,37.92
2018-07-28T22:50:06.356Z,38.37
2018-07-28T22:52:39.411Z,38.85
2018-07-28T22:55:11.795Z,38.59
2018-07-28T22:57:43.419Z,38.23
2018-07-28T23:00:19.333Z,38.56
2018-07-28T23:02:52.678Z,39.03
2018-07-28T23:05:24.717Z,39.47
2018-07-28T23:07:57.819Z,39.79
2018-07-28T23:10:30.740Z,38.76
2018-07-28T23:13:04.382Z,38.29
2018-07-28T23:15:37.560Z,38.43
2018-07-28T23:18:09.953Z,38.91
2018-07-28T23:20:50.308Z,39.13
2018-07-28T23:23:22.880Z,39.31
2018-07-28T23:25:55.029Z,39.30
2018-07-28T23:28:27.957Z,39.68
2018-07-28T23:31:00.006Z,40.23
2018-07-28T23:33:32.491Z,40.60
2018-07-28T23:36:06.594Z,40.38
2018-07-28T23:38:40.938Z,39.73
2018-07-28T23:41:14.787Z,40.33
2018-07-28T23:43:46.280Z,39.70
2018-07-28T23:46:22.572Z,39.56
2018-07-28T23:48:57.239Z,40.28
2018-07-28T23:51:30.280Z,39.50
2018-07-28T23:54:02.564Z,40.07
2018-07-28T23:56:36.460Z,40.07
2018-07-28T23:59:10.749Z,40.67
